Estherville, Iowa
Current Conditions -  °F | °C
As of 2:52 AM on Thursday 18 Dec 2014 (Local Time) from KEST Reporting Station
Clear Clear  
Wind Chill: -17°   Ceiling: Unl
Heat Index: -13°   Visibility: 10mi
Dew Point: -14°   Wind: 5mph
Humidity: 92%   Direction: 10°N
Pressure: 30.27"   Gusts: NA
Location:  43.4°N, 94.84°W
Report Text: KEST 180852Z AUTO 01004KT 10SM CLR M13/M14 A3027 RMK AO2 SLP277 I3000 T11281139 58001
Loading
Personal Weather Stations






























Interactive Weather Map New forecast layout! Learn more

10-Day Weather Forecast

Advertisements
Track Severe Weather on mobile